createdAt,value
2019-01-06T00:01:41.246Z,23.07
2019-01-06T00:04:38.172Z,20.53
2019-01-06T00:07:24.939Z,24.30
2019-01-06T00:10:09.255Z,22.10
2019-01-06T00:12:53.243Z,23.97
2019-01-06T00:15:38.433Z,23.53
2019-01-06T00:18:23.940Z,25.50
2019-01-06T00:21:09.507Z,33.85
2019-01-06T00:24:10.011Z,25.17
2019-01-06T00:26:59.984Z,33.78
2019-01-06T00:29:53.744Z,30.62
2019-01-06T00:32:39.238Z,45.70
2019-01-06T00:35:22.884Z,51.58
2019-01-06T00:38:08.226Z,38.55
2019-01-06T00:40:54.927Z,43.75
2019-01-06T00:43:36.893Z,89.97
2019-01-06T00:46:23.059Z,84.13
2019-01-06T00:49:01.719Z,34.45
2019-01-06T00:51:48.724Z,52.65
2019-01-06T00:54:47.258Z,29.85
2019-01-06T00:57:32.826Z,27.58
2019-01-06T01:00:11.403Z,66.17
2019-01-06T01:03:01.509Z,33.40
2019-01-06T01:05:55.238Z,34.92
2019-01-06T01:08:41.645Z,69.05
2019-01-06T01:11:21.215Z,25.68
2019-01-06T01:14:06.679Z,55.58
2019-01-06T01:16:52.271Z,33.25
2019-01-06T01:19:31.107Z,48.02
2019-01-06T01:22:33.142Z,44.55
2019-01-06T01:25:19.445Z,122.98
2019-01-06T01:28:05.046Z,34.73
2019-01-06T01:30:58.467Z,37.25
2019-01-06T01:33:54.081Z,19.98
2019-01-06T01:36:46.993Z,53.65
2019-01-06T01:39:32.884Z,104.53
2019-01-06T01:42:19.076Z,47.20
2019-01-06T01:45:08.977Z,43.35
2019-01-06T01:48:01.500Z,109.95
2019-01-06T01:50:46.823Z,102.25
2019-01-06T01:53:27.218Z,45.45
2019-01-06T01:56:10.120Z,76.22
2019-01-06T01:58:55.651Z,90.07
2019-01-06T02:01:45.458Z,23.67
2019-01-06T02:04:31.112Z,96.75
2019-01-06T02:07:16.768Z,90.25
2019-01-06T02:09:56.410Z,31.50
2019-01-06T02:12:42.228Z,31.50
2019-01-06T02:15:29.994Z,65.92
2019-01-06T02:18:17.018Z,67.37
2019-01-06T02:21:16.905Z,44.73
2019-01-06T02:24:02.000Z,51.75
2019-01-06T02:27:02.978Z,74.05
2019-01-06T02:29:55.939Z,30.48
2019-01-06T02:32:51.722Z,49.80
2019-01-06T02:35:57.579Z,110.78
2019-01-06T02:38:42.936Z,128.82
2019-01-06T02:41:30.556Z,83.67
2019-01-06T02:44:26.453Z,91.70
2019-01-06T02:47:19.247Z,122.45
2019-01-06T02:50:24.396Z,63.80
2019-01-06T02:53:12.461Z,55.48
2019-01-06T02:56:01.812Z,51.37
2019-01-06T02:59:06.622Z,88.22
2019-01-06T03:01:53.319Z,180.55
2019-01-06T03:04:50.511Z,50.63
2019-01-06T03:07:32.532Z,106.72
2019-01-06T03:10:20.660Z,21.27
2019-01-06T03:13:07.473Z,69.45
2019-01-06T03:15:52.537Z,84.00
2019-01-06T03:18:48.543Z,32.33
2019-01-06T03:21:46.030Z,85.38
2019-01-06T03:24:32.209Z,161.85
2019-01-06T03:27:10.946Z,83.12
2019-01-06T03:29:56.488Z,105.47
2019-01-06T03:32:43.172Z,49.85
2019-01-06T03:35:29.773Z,145.80
2019-01-06T03:38:25.584Z,21.55
2019-01-06T03:41:18.025Z,55.17
2019-01-06T03:44:03.618Z,60.58
2019-01-06T03:46:50.428Z,75.65
2019-01-06T03:49:36.158Z,41.33
2019-01-06T03:52:23.666Z,82.82
2019-01-06T03:55:10.640Z,38.45
2019-01-06T03:58:05.961Z,20.65
2019-01-06T04:00:51.646Z,57.05
2019-01-06T04:03:56.865Z,39.55
2019-01-06T04:06:46.843Z,39.92
2019-01-06T04:09:32.275Z,21.90
2019-01-06T04:12:25.040Z,48.23
2019-01-06T04:15:06.347Z,25.97
2019-01-06T04:17:52.763Z,42.00
2019-01-06T04:20:38.495Z,57.00
2019-01-06T04:23:40.652Z,164.75
2019-01-06T04:26:27.394Z,47.62
2019-01-06T04:29:22.455Z,124.90
2019-01-06T04:32:08.442Z,123.67
2019-01-06T04:34:53.856Z,220.85
2019-01-06T04:37:43.058Z,58.10
2019-01-06T04:40:32.922Z,136.85
2019-01-06T04:43:34.863Z,211.00
2019-01-06T04:46:22.567Z,101.22
2019-01-06T04:49:15.050Z,47.95
2019-01-06T04:52:00.701Z,78.72
2019-01-06T04:54:47.394Z,117.35
2019-01-06T04:57:34.076Z,86.87
2019-01-06T05:00:21.408Z,58.80
2019-01-06T05:03:17.415Z,9.85
2019-01-06T05:06:07.099Z,43.55
2019-01-06T05:08:52.404Z,29.80
2019-01-06T05:11:39.046Z,88.15
2019-01-06T05:14:24.950Z,64.00
2019-01-06T05:17:17.289Z,43.45
2019-01-06T05:20:03.770Z,20.35
2019-01-06T05:22:50.321Z,23.27
2019-01-06T05:25:51.105Z,51.18
2019-01-06T05:28:36.670Z,16.48
2019-01-06T05:31:32.190Z,25.90
2019-01-06T05:34:17.485Z,46.77
2019-01-06T05:37:02.630Z,10.82
2019-01-06T05:39:52.530Z,20.25
2019-01-06T05:42:48.385Z,17.48
2019-01-06T05:45:53.813Z,43.80
2019-01-06T05:48:46.841Z,25.05
2019-01-06T05:51:48.895Z,9.03
2019-01-06T05:54:36.031Z,25.88
2019-01-06T05:57:24.885Z,21.00
2019-01-06T06:00:11.192Z,138.92
2019-01-06T06:02:54.881Z,46.23
2019-01-06T06:05:32.713Z,56.75
2019-01-06T06:08:19.359Z,24.75
2019-01-06T06:11:10.335Z,37.25
2019-01-06T06:14:09.260Z,27.13
2019-01-06T06:16:55.936Z,83.70
2019-01-06T06:19:45.132Z,70.83
2019-01-06T06:22:23.918Z,36.03
2019-01-06T06:25:08.968Z,29.18
2019-01-06T06:27:54.576Z,20.12
2019-01-06T06:30:57.156Z,50.60
2019-01-06T06:33:50.106Z,36.83
2019-01-06T06:36:31.865Z,15.23
2019-01-06T06:39:17.425Z,38.00
2019-01-06T06:42:04.402Z,39.50
2019-01-06T06:44:46.801Z,38.25
2019-01-06T06:47:52.461Z,20.02
2019-01-06T06:50:37.955Z,16.37
2019-01-06T06:53:39.989Z,31.23
2019-01-06T06:56:25.934Z,27.70
2019-01-06T06:59:10.617Z,28.23
2019-01-06T07:02:46.376Z,65.72
2019-01-06T07:05:41.582Z,32.85
2019-01-06T07:08:31.921Z,73.17
2019-01-06T07:11:10.801Z,14.73
2019-01-06T07:14:01.608Z,93.85
2019-01-06T07:17:19.451Z,53.73
2019-01-06T07:20:06.201Z,80.95
2019-01-06T07:22:58.543Z,85.97
2019-01-06T07:25:42.174Z,57.48
2019-01-06T07:28:27.301Z,24.85
2019-01-06T07:31:29.015Z,45.75
2019-01-06T07:34:22.049Z,134.90
2019-01-06T07:37:07.853Z,107.37
2019-01-06T07:40:09.055Z,40.03
2019-01-06T07:42:49.633Z,39.00
2019-01-06T07:46:02.776Z,31.75
2019-01-06T07:49:02.293Z,12.60
2019-01-06T07:51:59.345Z,20.75
2019-01-06T07:54:44.201Z,17.80
2019-01-06T07:57:43.005Z,16.93
2019-01-06T08:00:21.006Z,37.95
2019-01-06T08:03:11.094Z,14.65
2019-01-06T08:05:59.147Z,11.57
2019-01-06T08:08:45.025Z,10.88
2019-01-06T08:11:30.038Z,10.82
2019-01-06T08:14:18.029Z,13.60
2019-01-06T08:17:20.097Z,17.48
2019-01-06T08:20:05.678Z,10.58
2019-01-06T08:23:10.105Z,8.55
2019-01-06T08:26:04.342Z,11.03
2019-01-06T08:28:50.277Z,9.28
2019-01-06T08:31:40.833Z,9.90
2019-01-06T08:34:24.698Z,12.63
2019-01-06T08:37:17.265Z,11.55
2019-01-06T08:40:02.684Z,10.85
2019-01-06T08:42:48.339Z,12.25
2019-01-06T08:45:34.998Z,11.75
2019-01-06T08:48:34.118Z,11.43
2019-01-06T08:51:33.129Z,11.40
2019-01-06T08:54:20.247Z,12.98
2019-01-06T08:57:14.328Z,8.68
2019-01-06T08:59:59.867Z,11.22
2019-01-06T09:02:46.927Z,12.33
2019-01-06T09:05:32.706Z,14.35
2019-01-06T09:08:34.884Z,10.75
2019-01-06T09:11:20.205Z,10.53
2019-01-06T09:14:06.011Z,11.38
2019-01-06T09:16:53.778Z,13.45
2019-01-06T09:19:54.309Z,11.50
2019-01-06T09:22:43.768Z,11.57
2019-01-06T09:25:29.119Z,11.90
2019-01-06T09:28:28.002Z,14.47
2019-01-06T09:31:14.204Z,12.60
2019-01-06T09:33:59.626Z,14.13
2019-01-06T09:36:52.682Z,12.90
2019-01-06T09:39:38.778Z,14.20
2019-01-06T09:42:27.375Z,9.68
2019-01-06T09:45:24.301Z,13.38
2019-01-06T09:48:20.612Z,12.95
2019-01-06T09:51:10.235Z,14.07
2019-01-06T09:54:01.775Z,10.80
2019-01-06T09:56:48.430Z,12.35
2019-01-06T09:59:50.541Z,11.77
2019-01-06T10:02:40.253Z,13.45
2019-01-06T10:05:26.468Z,11.07
2019-01-06T10:08:13.009Z,11.97
2019-01-06T10:10:59.830Z,11.40
2019-01-06T10:13:50.831Z,10.82
2019-01-06T10:16:38.769Z,14.13
2019-01-06T10:19:25.438Z,11.10
2019-01-06T10:22:22.335Z,11.28
2019-01-06T10:25:08.999Z,11.78
2019-01-06T10:27:49.487Z,13.88
2019-01-06T10:30:48.247Z,13.10
2019-01-06T10:33:36.432Z,18.50
2019-01-06T10:36:29.209Z,15.43
2019-01-06T10:39:16.019Z,15.40
2019-01-06T10:41:55.435Z,16.63
2019-01-06T10:44:51.558Z,15.57
2019-01-06T10:47:40.116Z,18.03
2019-01-06T10:50:25.888Z,18.60
2019-01-06T10:53:27.882Z,20.87
2019-01-06T10:56:13.390Z,17.63
2019-01-06T10:59:02.721Z,17.77
2019-01-06T11:01:48.153Z,22.23
2019-01-06T11:04:45.106Z,18.63
2019-01-06T11:07:32.916Z,29.03
2019-01-06T11:10:20.691Z,18.93
2019-01-06T11:13:24.867Z,14.67
2019-01-06T11:16:04.356Z,18.13
2019-01-06T11:18:59.771Z,22.20
2019-01-06T11:21:41.745Z,14.13
2019-01-06T11:24:37.398Z,15.17
2019-01-06T11:27:25.050Z,16.97
2019-01-06T11:30:11.566Z,18.60
2019-01-06T11:32:57.606Z,14.93
2019-01-06T11:35:44.388Z,19.63
2019-01-06T11:38:29.938Z,16.10
2019-01-06T11:41:15.686Z,15.63
2019-01-06T11:44:05.696Z,15.67
2019-01-06T11:47:04.537Z,18.37
2019-01-06T11:49:54.221Z,20.30
2019-01-06T11:52:52.658Z,21.93
2019-01-06T11:55:45.601Z,19.27
2019-01-06T11:58:35.082Z,15.03
2019-01-06T12:01:19.928Z,23.67
2019-01-06T12:04:05.469Z,20.83
2019-01-06T12:07:09.011Z,17.33
2019-01-06T12:09:54.382Z,18.00
2019-01-06T12:12:39.419Z,18.67
2019-01-06T12:15:28.150Z,19.77
2019-01-06T12:18:14.582Z,20.63
2019-01-06T12:21:00.179Z,25.57
2019-01-06T12:23:50.394Z,26.90
2019-01-06T12:26:37.118Z,24.10
2019-01-06T12:29:15.098Z,31.40
2019-01-06T12:32:20.431Z,29.77
2019-01-06T12:35:10.374Z,25.90
2019-01-06T12:37:56.233Z,22.60
2019-01-06T12:41:01.154Z,22.10
2019-01-06T12:44:03.716Z,23.77
2019-01-06T12:47:02.479Z,25.47
2019-01-06T12:49:49.139Z,21.30
2019-01-06T12:52:39.186Z,25.23
2019-01-06T12:55:21.828Z,24.57
2019-01-06T12:58:09.191Z,34.23
2019-01-06T13:00:53.608Z,28.93
2019-01-06T13:03:39.242Z,21.87
2019-01-06T13:06:22.844Z,30.93
2019-01-06T13:09:07.883Z,25.27
2019-01-06T13:11:53.614Z,24.17
2019-01-06T13:14:46.377Z,22.73
2019-01-06T13:17:48.215Z,20.80
2019-01-06T13:20:34.948Z,27.10
2019-01-06T13:23:21.138Z,26.23
2019-01-06T13:26:05.584Z,24.43
2019-01-06T13:28:54.811Z,20.60
2019-01-06T13:31:52.333Z,25.30
2019-01-06T13:34:42.029Z,20.30
2019-01-06T13:37:28.707Z,24.73
2019-01-06T13:40:19.167Z,20.17
2019-01-06T13:43:24.954Z,25.60
2019-01-06T13:46:11.799Z,21.37
2019-01-06T13:49:07.362Z,18.60
2019-01-06T13:51:53.018Z,21.47
2019-01-06T13:54:51.860Z,17.77
2019-01-06T13:57:37.298Z,20.03
2019-01-06T14:00:32.394Z,21.00
2019-01-06T14:03:18.055Z,16.73
2019-01-06T14:06:03.253Z,19.33
2019-01-06T14:08:48.991Z,20.43
2019-01-06T14:11:37.027Z,17.27
2019-01-06T14:14:23.527Z,17.37
2019-01-06T14:17:08.742Z,18.03
2019-01-06T14:20:04.570Z,20.33
2019-01-06T14:22:51.186Z,18.77
2019-01-06T14:25:36.617Z,17.70
2019-01-06T14:28:30.057Z,19.53
2019-01-06T14:31:21.771Z,16.93
2019-01-06T14:34:14.753Z,18.77
2019-01-06T14:37:16.908Z,16.23
2019-01-06T14:40:15.506Z,15.40
2019-01-06T14:43:05.343Z,18.63
2019-01-06T14:46:10.273Z,18.30
2019-01-06T14:48:59.850Z,16.27
2019-01-06T14:51:46.949Z,16.43
2019-01-06T14:54:45.620Z,16.20
2019-01-06T14:57:38.266Z,20.60
2019-01-06T15:00:44.208Z,18.57
2019-01-06T15:03:44.511Z,22.30
2019-01-06T15:06:35.124Z,18.33
2019-01-06T15:09:29.637Z,17.80
2019-01-06T15:12:15.746Z,19.77
2019-01-06T15:15:02.027Z,16.60
2019-01-06T15:17:49.829Z,17.17
2019-01-06T15:20:45.371Z,16.50
2019-01-06T15:23:32.042Z,16.53
2019-01-06T15:26:25.602Z,18.47
2019-01-06T15:29:13.756Z,17.07
2019-01-06T15:31:56.204Z,18.60
2019-01-06T15:34:57.990Z,14.40
2019-01-06T15:37:44.667Z,14.70
2019-01-06T15:40:37.343Z,15.23
2019-01-06T15:43:29.314Z,13.90
2019-01-06T15:46:28.348Z,10.80
2019-01-06T15:49:27.342Z,10.07
2019-01-06T15:52:14.848Z,11.13
2019-01-06T15:55:14.297Z,11.30
2019-01-06T15:58:04.261Z,10.90
2019-01-06T16:00:51.242Z,6.83
2019-01-06T16:03:51.280Z,10.20
2019-01-06T16:06:37.944Z,6.20
2019-01-06T16:09:22.154Z,7.53
2019-01-06T16:12:07.822Z,7.23
2019-01-06T16:15:09.906Z,8.10
2019-01-06T16:17:56.998Z,4.77
2019-01-06T16:20:36.466Z,6.00
2019-01-06T16:23:16.062Z,10.37
2019-01-06T16:25:58.971Z,8.63
2019-01-06T16:28:59.618Z,7.33
2019-01-06T16:31:45.157Z,7.90
2019-01-06T16:34:33.019Z,12.57
2019-01-06T16:37:19.715Z,10.10
2019-01-06T16:40:05.047Z,6.40
2019-01-06T16:42:51.875Z,4.80
2019-01-06T16:45:50.895Z,8.80
2019-01-06T16:48:41.453Z,11.20
2019-01-06T16:51:27.025Z,7.47
2019-01-06T16:54:23.667Z,10.80
2019-01-06T16:57:11.882Z,13.13
2019-01-06T17:00:05.676Z,9.27
2019-01-06T17:02:53.026Z,13.50
2019-01-06T17:05:41.114Z,9.10
2019-01-06T17:08:28.405Z,9.50
2019-01-06T17:11:30.179Z,9.63
2019-01-06T17:14:17.932Z,8.60
2019-01-06T17:17:03.871Z,6.13
2019-01-06T17:19:47.066Z,10.20
2019-01-06T17:22:36.367Z,18.57
2019-01-06T17:25:21.962Z,8.10
2019-01-06T17:28:17.359Z,10.40
2019-01-06T17:31:13.160Z,33.57
2019-01-06T17:34:03.930Z,13.40
2019-01-06T17:36:49.949Z,11.33
2019-01-06T17:39:36.148Z,6.83
2019-01-06T17:42:25.779Z,11.27
2019-01-06T17:45:11.173Z,10.03
2019-01-06T17:47:57.826Z,11.90
2019-01-06T17:50:50.890Z,15.83
2019-01-06T17:53:55.818Z,11.30
2019-01-06T17:56:58.988Z,9.90
2019-01-06T17:59:57.954Z,12.47
2019-01-06T18:02:44.440Z,9.93
2019-01-06T18:05:36.065Z,12.13
2019-01-06T18:08:20.995Z,11.60
2019-01-06T18:11:06.037Z,16.23
2019-01-06T18:13:48.818Z,24.00
2019-01-06T18:16:39.590Z,8.87
2019-01-06T18:19:29.276Z,10.00
2019-01-06T18:22:36.481Z,10.40
2019-01-06T18:25:34.829Z,13.57
2019-01-06T18:28:41.430Z,17.67
2019-01-06T18:31:39.731Z,16.47
2019-01-06T18:34:26.787Z,14.30
2019-01-06T18:37:13.456Z,14.00
2019-01-06T18:40:00.083Z,11.73
2019-01-06T18:43:02.776Z,13.10
2019-01-06T18:45:49.578Z,11.20
2019-01-06T18:48:40.553Z,11.57
2019-01-06T18:51:40.060Z,7.70
2019-01-06T18:54:36.117Z,12.70
2019-01-06T18:57:33.928Z,11.23
2019-01-06T19:00:20.978Z,18.33
2019-01-06T19:03:06.706Z,16.87
2019-01-06T19:06:08.654Z,19.23
2019-01-06T19:08:52.001Z,11.00
2019-01-06T19:11:39.081Z,13.93
2019-01-06T19:14:32.934Z,15.73
2019-01-06T19:17:26.783Z,10.80
2019-01-06T19:20:12.616Z,22.07
2019-01-06T19:22:59.767Z,16.83
2019-01-06T19:26:05.255Z,15.73
2019-01-06T19:28:57.833Z,6.93
2019-01-06T19:31:57.883Z,15.17
2019-01-06T19:34:52.841Z,16.10
2019-01-06T19:37:34.615Z,18.80
2019-01-06T19:40:21.736Z,15.93
2019-01-06T19:43:11.264Z,14.30
2019-01-06T19:45:49.822Z,17.03
2019-01-06T19:48:38.447Z,24.63
2019-01-06T19:51:19.703Z,30.63
2019-01-06T19:54:05.348Z,14.43
2019-01-06T19:56:46.302Z,13.13
2019-01-06T19:59:38.611Z,11.77
2019-01-06T20:02:15.828Z,18.77
2019-01-06T20:04:57.898Z,17.30
2019-01-06T20:07:40.164Z,16.03
2019-01-06T20:10:27.013Z,16.87
2019-01-06T20:13:12.578Z,22.13
2019-01-06T20:16:07.822Z,17.93
2019-01-06T20:19:04.179Z,12.30
2019-01-06T20:21:50.839Z,22.53
2019-01-06T20:24:36.075Z,24.17
2019-01-06T20:27:21.621Z,14.13
2019-01-06T20:30:07.283Z,21.43
2019-01-06T20:32:54.310Z,16.57
2019-01-06T20:35:35.808Z,10.33
2019-01-06T20:38:25.305Z,21.03
2019-01-06T20:41:07.486Z,18.73
2019-01-06T20:44:02.918Z,16.53
2019-01-06T20:46:48.165Z,24.33
2019-01-06T20:49:34.832Z,22.27
2019-01-06T20:52:25.271Z,26.80
2019-01-06T20:55:10.337Z,24.30
2019-01-06T20:58:03.725Z,13.73
2019-01-06T21:00:53.842Z,13.83
2019-01-06T21:03:46.542Z,17.33
2019-01-06T21:06:39.308Z,20.47
2019-01-06T21:09:36.137Z,10.87
2019-01-06T21:12:14.420Z,26.00
2019-01-06T21:15:13.791Z,18.60
2019-01-06T21:17:59.430Z,18.37
2019-01-06T21:20:55.178Z,29.90
2019-01-06T21:23:44.845Z,13.63
2019-01-06T21:26:30.199Z,22.47
2019-01-06T21:29:29.195Z,25.57
2019-01-06T21:32:27.921Z,18.73
2019-01-06T21:35:24.544Z,22.53
2019-01-06T21:38:10.098Z,23.83
2019-01-06T21:40:55.736Z,21.70
2019-01-06T21:43:57.769Z,15.27
2019-01-06T21:46:54.826Z,17.00
2019-01-06T21:49:41.631Z,17.90
2019-01-06T21:52:28.699Z,16.63
2019-01-06T21:55:30.299Z,15.77
2019-01-06T21:58:15.462Z,18.53
2019-01-06T22:01:17.490Z,24.03
2019-01-06T22:04:02.190Z,17.63
2019-01-06T22:06:55.050Z,24.93
2019-01-06T22:09:56.789Z,14.63
2019-01-06T22:12:41.772Z,17.47
2019-01-06T22:15:24.623Z,14.43
2019-01-06T22:18:12.046Z,24.07
2019-01-06T22:20:58.570Z,26.77
2019-01-06T22:23:50.244Z,20.60
2019-01-06T22:26:49.067Z,12.90
2019-01-06T22:29:54.386Z,16.20
2019-01-06T22:32:56.480Z,21.13
2019-01-06T22:35:54.456Z,23.37
2019-01-06T22:38:59.194Z,32.07
2019-01-06T22:41:56.784Z,12.53
2019-01-06T22:44:42.227Z,18.17
2019-01-06T22:47:40.606Z,24.03
2019-01-06T22:50:30.006Z,15.83
2019-01-06T22:53:19.757Z,19.13
2019-01-06T22:56:03.436Z,21.60
2019-01-06T22:58:50.514Z,18.37
2019-01-06T23:01:47.011Z,17.63
2019-01-06T23:04:23.097Z,13.10
2019-01-06T23:07:23.610Z,18.77
2019-01-06T23:10:06.340Z,18.43
2019-01-06T23:12:50.811Z,20.47
2019-01-06T23:15:36.698Z,20.90
2019-01-06T23:18:23.267Z,33.43
2019-01-06T23:21:23.230Z,18.70
2019-01-06T23:24:13.372Z,15.67
2019-01-06T23:26:52.859Z,14.90
2019-01-06T23:29:42.221Z,27.07
2019-01-06T23:32:34.493Z,20.90
2019-01-06T23:35:21.041Z,28.20
2019-01-06T23:38:17.201Z,22.00
2019-01-06T23:41:12.499Z,15.67
2019-01-06T23:44:01.133Z,29.23
2019-01-06T23:46:50.937Z,22.20
2019-01-06T23:49:52.695Z,17.57
2019-01-06T23:52:41.657Z,17.50
2019-01-06T23:55:31.096Z,11.53
2019-01-06T23:58:15.462Z,32.63
